Time;durP1;ratioP1;P1;durP2;ratioP2;P2;SDS_P1;SDS_P2;PMS_P1;PMS_P2;Temp;Humidity;BMP_temperature;BMP_pressure;BME280_temperature;BME280_humidity;BME280_pressure;Samples;Min_cycle;Max_cycle;Signal;HPM_P1;HPM_P2
2021/01/19 00:00:25;;;;;;;;;42.25;36.25;;;;;-12.00;60.33;101673.84;5134066;27;8875;-71
2021/01/19 00:02:53;;;;;;;;;45.00;36.50;;;;;-11.88;60.08;101669.91;5115808;27;9646;-70
2021/01/19 00:05:48;;;;;;;;;47.00;42.25;;;;;-12.07;58.96;101676.31;5133388;27;8851;-71
2021/01/19 00:08:44;;;;;;;;;40.75;39.50;;;;;-11.93;59.48;101673.06;5133241;27;8842;-70
2021/01/19 00:11:11;;;;;;;;;64.50;49.00;;;;;-11.91;59.63;101683.56;5115850;27;8924;-70
2021/01/19 00:14:01;;;;;;;;;56.50;48.75;;;;;-12.08;59.53;101683.47;5134209;27;8835;-70
2021/01/19 00:16:56;;;;;;;;;47.25;46.00;;;;;-12.05;59.62;101682.31;5148024;27;8862;-70
2021/01/19 00:19:52;;;;;;;;;44.00;39.50;;;;;-12.19;60.21;101677.56;5153755;27;8825;-70
2021/01/19 00:22:47;;;;;;;;;43.75;42.00;;;;;-12.24;59.83;101671.91;5153983;27;8829;-70
2021/01/19 00:25:17;;;;;;;;;34.25;34.00;;;;;-12.19;60.59;101672.22;5141384;27;8854;-70
2021/01/19 00:28:13;;;;;;;;;48.50;46.00;;;;;-12.28;60.09;101675.84;5119394;27;8919;-70
2021/01/19 00:31:09;;;;;;;;;38.75;38.75;;;;;-12.40;60.07;101667.31;5131798;27;8847;-69
2021/01/19 00:33:36;;;;;;;;;41.75;37.25;;;;;-12.52;60.39;101661.38;5133973;27;8831;-72
2021/01/19 00:36:12;;;;;;;;;45.50;45.00;;;;;-12.21;60.65;101667.06;5134086;27;8831;-70
2021/01/19 00:39:08;;;;;;;;;37.00;34.00;;;;;-12.20;60.48;101659.91;5132810;27;8944;-71
2021/01/19 00:41:36;;;;;;;;;42.00;42.00;;;;;-12.48;60.36;101664.59;5133828;27;8860;-71
2021/01/19 00:44:31;;;;;;;;;43.25;41.50;;;;;-12.52;59.68;101656.06;5132917;27;8831;-70
2021/01/19 00:47:12;;;;;;;;;52.25;39.75;;;;;-12.55;59.78;101663.53;5133845;27;8874;-70
2021/01/19 00:50:08;;;;;;;;;36.00;36.00;;;;;-12.68;59.93;101661.28;5132345;27;8953;-71
2021/01/19 00:52:36;;;;;;;;;50.25;45.00;;;;;-12.80;60.44;101666.03;5133789;27;9023;-71
2021/01/19 00:55:32;;;;;;;;;42.00;39.25;;;;;-12.57;61.18;101676.16;5132955;27;8863;-71
2021/01/19 00:58:19;;;;;;;;;43.00;42.50;;;;;-12.80;60.72;101678.47;5118465;27;8866;-71
2021/01/19 01:01:15;;;;;;;;;48.75;43.75;;;;;-12.64;60.93;101675.97;5132457;27;8843;-71
2021/01/19 01:03:42;;;;;;;;;42.00;38.50;;;;;-12.73;61.11;101671.53;5133770;27;8831;-71
2021/01/19 01:06:38;;;;;;;;;36.75;36.75;;;;;-12.78;60.62;101680.03;5136215;27;8848;-71
2021/01/19 01:09:37;;;;;;;;;46.25;39.50;;;;;-12.81;60.45;101677.66;5137039;27;8819;-71
2021/01/19 01:12:33;;;;;;;;;48.50;36.75;;;;;-13.09;60.97;101681.41;5135815;27;8942;-71
2021/01/19 01:15:00;;;;;;;;;45.50;41.00;;;;;-12.85;61.24;101683.44;5137589;27;8953;-70
2021/01/19 01:17:58;;;;;;;;;42.75;41.50;;;;;-12.68;61.06;101680.75;5157030;27;8944;-71
2021/01/19 01:20:53;;;;;;;;;33.25;33.25;;;;;-12.81;61.00;101687.47;5142837;27;8860;-71
2021/01/19 01:23:49;;;;;;;;;38.00;37.50;;;;;-12.69;60.92;101681.75;5154923;27;8860;-71
2021/01/19 01:26:44;;;;;;;;;43.50;43.25;;;;;-12.79;60.69;101681.00;5143732;27;8961;-70
2021/01/19 01:29:40;;;;;;;;;41.00;36.75;;;;;-12.77;60.87;101670.19;5139907;27;8837;-70
2021/01/19 01:32:41;;;;;;;;;53.00;46.50;;;;;-12.84;60.33;101682.47;5156717;27;8853;-70
2021/01/19 01:35:21;;;;;;;;;40.75;39.25;;;;;-12.87;60.62;101686.28;5157664;27;8845;-70
2021/01/19 01:38:17;;;;;;;;;38.50;38.50;;;;;-12.80;60.06;101687.34;5156707;27;8833;-71
2021/01/19 01:41:18;;;;;;;;;45.25;45.00;;;;;-12.79;59.80;101686.34;5157158;27;8849;-70
2021/01/19 01:43:46;;;;;;;;;52.00;48.25;;;;;-12.88;60.35;101689.91;5148322;27;8944;-71
2021/01/19 01:46:18;;;;;;;;;60.75;46.00;;;;;-12.85;60.22;101688.78;5157600;27;8805;-71
2021/01/19 01:49:14;;;;;;;;;50.00;45.00;;;;;-12.76;60.67;101685.19;5156560;27;8909;-70
2021/01/19 01:52:09;;;;;;;;;50.75;45.50;;;;;-12.79;60.75;101690.84;5156445;27;9545;-71
2021/01/19 01:55:06;;;;;;;;;44.75;39.50;;;;;-12.73;60.72;101690.19;5156198;27;9016;-70
2021/01/19 01:57:41;;;;;;;;;44.50;42.00;;;;;-12.73;60.79;101688.38;5157507;27;8829;-71
2021/01/19 02:00:36;;;;;;;;;45.50;43.00;;;;;-12.82;60.89;101688.47;5156313;27;8849;-71
2021/01/19 02:03:32;;;;;;;;;44.25;43.75;;;;;-12.76;60.61;101682.53;5156114;27;8824;-70
2021/01/19 02:06:01;;;;;;;;;59.00;50.00;;;;;-12.75;60.87;101684.19;5157221;27;8833;-71
2021/01/19 02:09:21;;;;;;;;;61.00;52.00;;;;;-12.83;60.62;101698.28;5141965;27;8841;-71
2021/01/19 02:12:26;;;;;;;;;59.00;49.25;;;;;-12.61;59.24;101691.63;5154245;27;8817;-71
2021/01/19 02:15:06;;;;;;;;;39.25;38.00;;;;;-13.10;59.95;101685.06;5157324;27;8912;-71
2021/01/19 02:18:21;;;;;;;;;49.00;45.50;;;;;-12.87;60.04;101691.59;5139767;27;8942;-71
2021/01/19 02:21:47;;;;;;;;;26.25;24.50;;;;;-12.90;60.60;101686.56;5135209;27;8843;-71
2021/01/19 02:25:13;;;;;;;;;51.00;48.00;;;;;-12.76;60.26;101699.34;5143012;27;8843;-71
2021/01/19 02:28:23;;;;;;;;;36.75;30.00;;;;;-12.77;60.18;101695.00;5156132;27;8821;-71
2021/01/19 02:31:32;;;;;;;;;54.75;46.50;;;;;-12.90;59.71;101695.38;5141701;27;8857;-71
2021/01/19 02:34:00;;;;;;;;;64.25;55.00;;;;;-12.72;60.40;101690.06;5138446;27;8897;-71
2021/01/19 02:37:06;;;;;;;;;59.50;48.25;;;;;-12.69;59.78;101689.75;5143253;27;8867;-71
2021/01/19 02:40:08;;;;;;;;;62.50;49.50;;;;;-12.52;59.54;101698.69;5134831;27;8899;-71
2021/01/19 02:42:49;;;;;;;;;62.25;52.50;;;;;-12.40;59.32;101696.63;5140328;27;8859;-71
2021/01/19 02:45:46;;;;;;;;;41.75;41.75;;;;;-12.41;60.05;101697.63;5141939;27;8872;-71
2021/01/19 02:48:42;;;;;;;;;63.00;53.25;;;;;-12.56;60.67;101699.19;5155316;27;8888;-71
2021/01/19 02:51:09;;;;;;;;;60.25;49.00;;;;;-12.54;60.23;101694.53;5156233;27;8932;-71
2021/01/19 02:54:05;;;;;;;;;68.25;54.50;;;;;-12.34;60.57;101693.34;5132123;27;8987;-71
2021/01/19 02:57:39;;;;;;;;;56.75;49.50;;;;;-12.23;59.58;101684.22;5155374;27;8829;-71
2021/01/19 03:00:46;;;;;;;;;62.00;52.75;;;;;-12.46;59.97;101683.91;5154556;27;8841;-71
2021/01/19 03:03:42;;;;;;;;;55.50;47.25;;;;;-12.28;60.06;101683.84;5155066;27;8836;-71
2021/01/19 03:06:20;;;;;;;;;45.75;44.50;;;;;-12.36;61.08;101690.81;5156010;27;8857;-70
2021/01/19 03:09:19;;;;;;;;;59.75;52.00;;;;;-12.14;60.35;101686.78;5141195;27;9585;-71
2021/01/19 03:12:16;;;;;;;;;65.00;56.00;;;;;-12.15;59.98;101693.09;5141089;27;8829;-70
2021/01/19 03:15:01;;;;;;;;;63.50;53.25;;;;;-12.10;59.27;101703.31;5155662;27;8837;-70
2021/01/19 03:17:57;;;;;;;;;61.50;42.25;;;;;-12.47;59.72;101703.56;5140362;27;8863;-70
2021/01/19 03:20:53;;;;;;;;;56.75;50.00;;;;;-12.32;60.00;101707.34;5134016;27;8847;-70
2021/01/19 03:23:24;;;;;;;;;62.50;51.00;;;;;-12.16;60.11;101707.44;5132285;27;8849;-71
2021/01/19 03:26:20;;;;;;;;;72.00;57.75;;;;;-12.09;60.79;101708.47;5134340;27;8900;-71
2021/01/19 03:28:47;;;;;;;;;48.25;40.50;;;;;-11.98;60.01;101702.03;5137579;27;8851;-70
2021/01/19 03:31:15;;;;;;;;;61.75;51.50;;;;;-12.07;60.56;101703.00;5137063;27;8880;-70
2021/01/19 03:33:43;;;;;;;;;65.50;56.50;;;;;-12.03;60.28;101711.53;5156113;27;8936;-70
2021/01/19 03:36:38;;;;;;;;;74.75;55.00;;;;;-12.03;59.56;101711.53;5154320;27;8865;-71
2021/01/19 03:39:34;;;;;;;;;65.50;52.25;;;;;-12.00;59.95;101712.03;5154081;27;8821;-70
2021/01/19 03:42:29;;;;;;;;;58.25;51.50;;;;;-11.92;59.49;101712.06;5154031;27;8853;-70
2021/01/19 03:45:26;;;;;;;;;66.75;57.25;;;;;-12.09;59.90;101708.47;5151348;27;8880;-71
2021/01/19 03:47:55;;;;;;;;;52.50;48.00;;;;;-11.98;59.65;101712.69;5155419;27;8825;-71
2021/01/19 03:50:50;;;;;;;;;54.00;49.00;;;;;-12.03;58.96;101712.34;5154180;27;8859;-71
2021/01/19 03:53:46;;;;;;;;;66.25;57.00;;;;;-12.06;60.11;101713.50;5142935;27;9561;-71
2021/01/19 03:56:41;;;;;;;;;68.25;53.00;;;;;-12.21;59.92;101714.22;5153776;27;8826;-71
2021/01/19 03:59:37;;;;;;;;;59.75;45.25;;;;;-12.14;60.22;101721.44;5140147;27;9529;-71
2021/01/19 04:02:32;;;;;;;;;71.00;58.50;;;;;-12.13;60.37;101723.13;5153767;27;8845;-71
2021/01/19 04:05:06;;;;;;;;;59.25;46.50;;;;;-12.12;59.98;101722.13;5137522;27;8821;-71
2021/01/19 04:08:02;;;;;;;;;58.75;53.00;;;;;-12.04;60.62;101721.31;5154002;27;8900;-70
2021/01/19 04:10:58;;;;;;;;;66.00;57.00;;;;;-12.27;61.05;101725.53;5153738;27;8825;-70
2021/01/19 04:13:53;;;;;;;;;61.50;52.50;;;;;-12.16;60.62;101728.78;5154062;27;8925;-70
2021/01/19 04:16:49;;;;;;;;;61.50;52.75;;;;;-12.06;60.73;101729.50;5140070;27;8832;-70
2021/01/19 04:19:44;;;;;;;;;63.75;52.00;;;;;-11.93;61.18;101722.91;5137772;27;8823;-70
2021/01/19 04:22:12;;;;;;;;;60.00;53.00;;;;;-11.92;61.20;101713.91;5138417;27;8829;-71
2021/01/19 04:25:08;;;;;;;;;61.00;52.75;;;;;-11.85;60.81;101715.78;5139517;27;9594;-70
2021/01/19 04:28:03;;;;;;;;;68.75;54.50;;;;;-11.70;60.83;101712.47;5153827;27;8863;-71
2021/01/19 04:30:32;;;;;;;;;68.50;54.50;;;;;-11.62;61.90;101708.00;5154598;27;8824;-70
2021/01/19 04:33:27;;;;;;;;;68.25;56.25;;;;;-11.62;61.80;101708.00;5153299;27;8821;-71
2021/01/19 04:36:23;;;;;;;;;67.50;52.00;;;;;-11.61;60.33;101704.34;5153582;27;8825;-71
2021/01/19 04:39:18;;;;;;;;;66.00;53.50;;;;;-11.59;60.57;101709.50;5153538;27;8837;-70
2021/01/19 04:42:20;;;;;;;;;64.00;52.75;;;;;-11.71;60.60;101705.47;5157679;27;8836;-70
2021/01/19 04:45:16;;;;;;;;;61.75;53.00;;;;;-11.50;60.99;101700.53;5143629;27;8861;-70
2021/01/19 04:47:58;;;;;;;;;71.00;58.00;;;;;-11.40;60.27;101698.56;5158515;27;8864;-70
2021/01/19 04:50:26;;;;;;;;;62.50;54.25;;;;;-11.51;60.51;101699.69;5140157;27;8903;-70
2021/01/19 04:53:25;;;;;;;;;53.25;48.25;;;;;-11.48;60.27;101697.72;5140400;27;8935;-70
2021/01/19 04:55:54;;;;;;;;;67.75;55.50;;;;;-11.48;60.35;101703.06;5137785;27;8846;-70
2021/01/19 04:58:23;;;;;;;;;67.00;54.50;;;;;-11.45;60.21;101700.06;5137668;27;8843;-71
2021/01/19 05:01:34;;;;;;;;;66.75;54.00;;;;;-11.30;60.79;101709.94;5127942;27;9023;-71
2021/01/19 05:04:47;;;;;;;;;60.50;49.50;;;;;-11.28;61.10;101701.75;5115332;28;8853;-69
2021/01/19 05:08:04;;;;;;;;;71.75;57.25;;;;;-11.23;60.29;101715.47;5115099;28;8839;-70
2021/01/19 05:10:37;;;;;;;;;62.50;50.50;;;;;-11.34;60.19;101721.97;5117032;28;8838;-70
2021/01/19 05:13:15;;;;;;;;;70.00;58.00;;;;;-11.02;60.75;101715.03;5116086;28;8839;-70
2021/01/19 05:15:48;;;;;;;;;66.00;53.50;;;;;-11.17;60.14;101722.00;5118028;27;8843;-70
2021/01/19 05:18:45;;;;;;;;;65.25;51.00;;;;;-11.10;60.24;101726.53;5123981;27;8843;-71
2021/01/19 05:21:40;;;;;;;;;68.75;56.75;;;;;-10.89;60.14;101717.19;5136925;27;8859;-70
2021/01/19 05:24:40;;;;;;;;;74.50;59.00;;;;;-11.06;60.17;101717.16;5136974;27;8859;-71
2021/01/19 05:27:36;;;;;;;;;68.50;58.50;;;;;-11.18;59.60;101725.69;5136887;27;8836;-70
2021/01/19 05:30:35;;;;;;;;;81.25;63.75;;;;;-11.13;59.75;101726.84;5136145;27;8840;-70
2021/01/19 05:33:31;;;;;;;;;75.00;59.00;;;;;-10.87;59.60;101720.56;5120336;27;8853;-70
2021/01/19 05:36:12;;;;;;;;;72.50;57.25;;;;;-11.07;59.60;101734.22;5120477;27;8844;-70
2021/01/19 05:39:30;;;;;;;;;62.75;51.75;;;;;-10.87;59.74;101733.91;5116928;27;8877;-70
2021/01/19 05:41:57;;;;;;;;;74.25;57.50;;;;;-10.85;60.06;101745.28;5116375;28;8880;-70
2021/01/19 05:44:53;;;;;;;;;70.00;57.25;;;;;-10.95;58.81;101735.59;5114315;28;8835;-70
2021/01/19 05:47:21;;;;;;;;;62.75;53.50;;;;;-11.03;58.61;101740.06;5115025;28;8839;-70
2021/01/19 05:50:18;;;;;;;;;63.75;50.75;;;;;-11.34;59.29;101742.50;5116556;27;8847;-71
2021/01/19 05:53:14;;;;;;;;;67.00;57.00;;;;;-11.28;59.94;101747.16;5115352;27;8915;-71
2021/01/19 05:56:18;;;;;;;;;68.25;54.50;;;;;-11.30;60.09;101752.66;5115676;28;8989;-71
2021/01/19 05:59:26;;;;;;;;;59.00;52.00;;;;;-11.21;60.52;101753.53;5117183;27;8835;-71
2021/01/19 06:02:15;;;;;;;;;62.00;52.25;;;;;-11.15;60.22;101749.38;5137342;27;8854;-74
2021/01/19 06:05:12;;;;;;;;;74.00;53.00;;;;;-11.05;60.21;101750.06;5121622;27;8839;-75
2021/01/19 06:07:43;;;;;;;;;53.75;48.25;;;;;-10.77;59.56;101742.59;5136893;27;8950;-74
2021/01/19 06:10:18;;;;;;;;;50.25;47.25;;;;;-10.65;59.46;101749.31;5135545;27;8887;-74
2021/01/19 06:13:14;;;;;;;;;67.00;54.75;;;;;-10.62;59.27;101740.94;5134074;27;8825;-75
2021/01/19 06:16:07;;;;;;;;;73.00;55.25;;;;;-10.42;59.58;101736.94;5155579;27;8973;-75
2021/01/19 06:19:03;;;;;;;;;64.75;56.50;;;;;-10.12;59.03;101745.22;5146001;27;8881;-75
2021/01/19 06:22:04;;;;;;;;;68.00;57.25;;;;;-10.06;58.90;101739.19;5135002;27;8858;-75
2021/01/19 06:25:02;;;;;;;;;65.00;51.50;;;;;-10.32;58.67;101733.25;5146679;27;8856;-74
2021/01/19 06:27:35;;;;;;;;;60.50;52.50;;;;;-10.14;59.01;101739.22;5136135;27;8937;-75
2021/01/19 06:30:31;;;;;;;;;59.25;50.00;;;;;-10.06;58.83;101738.38;5121286;27;8874;-74
2021/01/19 06:33:31;;;;;;;;;59.50;51.50;;;;;-10.07;58.48;101740.22;5136168;27;8839;-76
2021/01/19 06:36:01;;;;;;;;;57.75;49.50;;;;;-10.19;58.88;101737.06;5137909;27;8843;-74
2021/01/19 06:38:32;;;;;;;;;61.00;49.50;;;;;-10.15;58.71;101743.72;5135820;27;8827;-74
2021/01/19 06:41:37;;;;;;;;;58.50;51.50;;;;;-10.00;58.03;101745.72;5135819;27;8858;-75
2021/01/19 06:44:23;;;;;;;;;65.25;50.25;;;;;-9.95;58.18;101751.41;5136917;27;8886;-75
2021/01/19 06:47:20;;;;;;;;;72.00;55.75;;;;;-9.73;57.97;101752.53;5135199;27;8839;-75
2021/01/19 06:50:20;;;;;;;;;67.75;54.00;;;;;-9.70;56.97;101746.81;5134398;27;8847;-74
2021/01/19 06:53:33;;;;;;;;;62.25;51.00;;;;;-9.78;57.70;101742.31;5120375;27;8871;-75
2021/01/19 06:56:35;;;;;;;;;47.50;39.75;;;;;-9.57;56.54;101739.09;5132031;27;8851;-75
2021/01/19 06:59:32;;;;;;;;;71.50;56.50;;;;;-9.41;57.03;101741.69;5140347;27;8847;-74
2021/01/19 07:02:17;;;;;;;;;67.25;52.50;;;;;-9.08;55.75;101747.72;5135457;27;8843;-74
2021/01/19 07:04:54;;;;;;;;;66.25;55.75;;;;;-9.29;56.39;101737.59;5135125;27;8870;-75
2021/01/19 07:07:48;;;;;;;;;56.50;44.25;;;;;-9.05;55.85;101742.00;5135665;27;8839;-75
2021/01/19 07:10:33;;;;;;;;;69.75;57.25;;;;;-9.19;55.62;101739.25;5116773;27;8847;-75
2021/01/19 07:13:25;;;;;;;;;77.50;63.50;;;;;-9.17;55.24;101746.09;5146724;27;8854;-75
2021/01/19 07:16:36;;;;;;;;;79.00;63.25;;;;;-9.10;55.47;101744.38;5145528;27;8872;-75
2021/01/19 07:19:47;;;;;;;;;52.50;44.25;;;;;-8.84;54.55;101754.78;5145829;27;8910;-76
2021/01/19 07:23:06;;;;;;;;;75.50;59.00;;;;;-8.78;55.58;101745.19;5134644;27;8900;-74
2021/01/19 07:25:33;;;;;;;;;62.75;54.00;;;;;-8.66;54.44;101749.16;5135057;27;8927;-75
2021/01/19 07:28:02;;;;;;;;;74.50;60.50;;;;;-8.54;54.24;101757.59;5135075;27;8906;-74
2021/01/19 07:30:58;;;;;;;;;43.75;33.75;;;;;-8.62;54.53;101761.16;5119875;27;8931;-75
2021/01/19 07:33:29;;;;;;;;;49.00;39.25;;;;;-8.56;54.13;101765.00;5116875;27;8840;-74
2021/01/19 07:36:26;;;;;;;;;70.50;54.75;;;;;-8.28;53.94;101767.91;5139172;27;8857;-74
2021/01/19 07:39:15;;;;;;;;;67.75;57.25;;;;;-8.20;53.54;101779.44;5135640;27;8843;-74
2021/01/19 07:41:43;;;;;;;;;71.00;52.50;;;;;-8.43;53.74;101781.34;5122373;27;8913;-74
2021/01/19 07:44:39;;;;;;;;;67.25;56.75;;;;;-8.41;53.52;101779.31;5153434;27;8821;-73
2021/01/19 07:47:38;;;;;;;;;66.25;51.00;;;;;-8.36;53.36;101790.31;5154021;27;8817;-74
2021/01/19 07:50:19;;;;;;;;;37.00;34.25;;;;;-8.24;52.78;101790.69;5137141;27;8845;-73
2021/01/19 07:53:15;;;;;;;;;59.00;49.00;;;;;-8.16;53.19;101786.09;5142424;27;8829;-74
2021/01/19 07:56:24;;;;;;;;;61.50;51.25;;;;;-8.34;53.27;101790.13;5140506;27;8848;-75
2021/01/19 07:58:53;;;;;;;;;62.50;52.50;;;;;-7.88;52.99;101788.22;5155073;27;9636;-75
2021/01/19 08:01:57;;;;;;;;;56.50;49.00;;;;;-8.21;52.20;101791.16;5121450;27;8943;-75
2021/01/19 08:05:00;;;;;;;;;45.00;41.25;;;;;-8.16;51.27;101798.69;5111880;28;8843;-76
2021/01/19 08:07:40;;;;;;;;;58.50;52.00;;;;;-8.05;53.35;101795.59;5112711;28;8914;-76
2021/01/19 08:10:36;;;;;;;;;71.00;57.25;;;;;-8.16;52.29;101796.81;5118694;27;8964;-74
2021/01/19 08:13:32;;;;;;;;;75.50;60.25;;;;;-7.93;52.11;101790.59;5116201;27;8837;-73
2021/01/19 08:16:28;;;;;;;;;62.50;54.00;;;;;-7.88;51.13;101796.25;5120230;27;8885;-74
2021/01/19 08:19:09;;;;;;;;;76.75;60.50;;;;;-8.07;52.57;101799.44;5123906;27;8840;-75
2021/01/19 08:21:40;;;;;;;;;66.25;54.00;;;;;-7.44;52.47;101798.97;5133127;27;8956;-74
2021/01/19 08:24:36;;;;;;;;;26.50;21.50;;;;;-7.59;52.40;101787.38;5132150;27;8847;-75
2021/01/19 08:27:11;;;;;;;;;59.50;48.75;;;;;-7.36;51.98;101798.91;5134191;27;8873;-75
2021/01/19 08:29:39;;;;;;;;;62.00;53.75;;;;;-7.39;50.60;101798.41;5123317;27;8839;-75
2021/01/19 08:32:35;;;;;;;;;66.75;55.00;;;;;-7.46;51.46;101798.31;5113190;28;8885;-74
2021/01/19 08:35:17;;;;;;;;;57.75;51.50;;;;;-7.43;52.14;101786.38;5113278;28;8855;-75
2021/01/19 08:38:14;;;;;;;;;56.00;49.00;;;;;-7.30;51.56;101794.63;5126040;27;8912;-74
2021/01/19 08:41:07;;;;;;;;;60.75;48.75;;;;;-6.93;49.68;101793.63;5112783;28;8850;-73
2021/01/19 08:44:05;;;;;;;;;67.00;49.00;;;;;-6.71;49.23;101799.91;5117493;27;8916;-75
2021/01/19 08:47:02;;;;;;;;;53.75;48.00;;;;;-6.51;49.62;101809.03;5114818;27;8861;-75
2021/01/19 08:49:57;;;;;;;;;48.25;44.75;;;;;-6.89;49.33;101799.50;5129136;27;8832;-74
2021/01/19 08:52:54;;;;;;;;;55.00;48.00;;;;;-6.58;48.54;101796.53;5116703;28;8835;-74
2021/01/19 08:55:30;;;;;;;;;66.00;51.50;;;;;-6.47;48.06;101794.16;5121263;27;8836;-73
2021/01/19 08:58:00;;;;;;;;;46.00;38.75;;;;;-6.17;49.00;101792.16;5132636;27;8840;-75
2021/01/19 09:00:37;;;;;;;;;44.00;40.25;;;;;-5.83;48.95;101798.63;5111059;28;8953;-75
2021/01/19 09:03:09;;;;;;;;;64.25;49.50;;;;;-6.12;48.38;101788.91;5112174;28;8914;-76
2021/01/19 09:06:08;;;;;;;;;64.00;50.50;;;;;-5.91;47.75;101785.31;5114010;28;8839;-75
2021/01/19 09:09:03;;;;;;;;;53.50;48.75;;;;;-5.91;47.86;101778.06;5130349;27;8855;-74
2021/01/19 09:11:59;;;;;;;;;48.75;45.75;;;;;-5.98;48.23;101777.22;5119592;27;8840;-74
2021/01/19 09:14:28;;;;;;;;;58.00;48.75;;;;;-5.42;48.67;101792.50;5126925;28;8835;-74
2021/01/19 09:16:57;;;;;;;;;53.25;48.25;;;;;-5.47;47.89;101787.69;5111780;28;8851;-74
2021/01/19 09:20:07;;;;;;;;;61.75;48.50;;;;;-5.95;47.98;101784.88;5129455;27;8858;-73
2021/01/19 09:23:15;;;;;;;;;58.50;52.75;;;;;-6.23;47.39;101792.94;5125980;28;8868;-73
2021/01/19 09:25:56;;;;;;;;;66.75;53.75;;;;;-5.96;48.02;101788.63;5113411;28;8862;-75
2021/01/19 09:28:52;;;;;;;;;49.00;46.00;;;;;-5.99;48.09;101780.91;5116895;28;8927;-75
2021/01/19 09:31:49;;;;;;;;;42.50;42.50;;;;;-5.94;47.18;101780.34;5114698;28;9598;-75
2021/01/19 09:34:48;;;;;;;;;38.00;38.00;;;;;-5.77;47.63;101780.84;5114500;28;8843;-74
2021/01/19 09:37:43;;;;;;;;;54.75;47.50;;;;;-5.67;47.51;101781.34;5116227;28;9633;-75
2021/01/19 09:40:41;;;;;;;;;58.00;48.75;;;;;-5.38;47.75;101788.34;5116375;28;8831;-75
2021/01/19 09:43:17;;;;;;;;;50.75;46.25;;;;;-5.53;47.41;101788.47;5115594;28;8911;-74
2021/01/19 09:45:45;;;;;;;;;42.75;35.50;;;;;-4.97;45.25;101787.53;5121161;27;9703;-75
2021/01/19 09:48:30;;;;;;;;;49.25;45.25;;;;;-4.73;44.59;101792.38;5118504;27;8847;-74
2021/01/19 09:51:02;;;;;;;;;58.75;48.00;;;;;-4.36;43.49;101787.50;5129727;27;8851;-73
2021/01/19 09:54:00;;;;;;;;;47.25;45.50;;;;;-4.52;43.68;101796.81;5117235;27;8850;-74
2021/01/19 09:56:36;;;;;;;;;57.75;51.50;;;;;-4.80;43.24;101799.63;5124530;27;8844;-75
2021/01/19 09:59:10;;;;;;;;;57.50;49.25;;;;;-5.33;44.94;101786.72;5136387;27;9545;-73
2021/01/19 10:01:51;;;;;;;;;47.50;42.50;;;;;-5.69;45.13;101789.59;5136173;27;8923;-74
2021/01/19 10:04:32;;;;;;;;;56.00;48.00;;;;;-4.87;44.21;101783.41;5137156;27;8851;-74
2021/01/19 10:07:10;;;;;;;;;48.00;41.50;;;;;-4.98;44.27;101789.41;5132204;27;8840;-75
2021/01/19 11:26:41;;;;;;;;;63.25;52.00;;;;;-5.89;48.00;101754.44;6199115;22;1190887;-71
2021/01/19 11:29:37;;;;;;;;;50.75;45.00;;;;;-5.32;46.98;101752.50;6252481;22;8793;-71
2021/01/19 11:32:11;;;;;;;;;54.00;48.25;;;;;-5.61;46.28;101749.00;6253409;22;8782;-72
2021/01/19 11:34:43;;;;;;;;;13.50;7.00;;;;;-5.59;47.62;101751.53;6202811;22;8950;-71
2021/01/19 11:37:13;;;;;;;;;50.75;43.75;;;;;-5.55;46.07;101754.66;6253591;22;8785;-71
2021/01/19 11:40:42;;;;;;;;;55.75;48.50;;;;;-4.80;46.08;101753.75;6253191;22;8811;-72
2021/01/19 11:43:27;;;;;;;;;64.00;51.50;;;;;-5.28;45.94;101755.66;6161292;23;8833;-72
2021/01/19 11:46:02;;;;;;;;;64.50;54.00;;;;;-5.58;46.94;101755.91;6141328;23;8830;-72
2021/01/19 11:49:00;;;;;;;;;45.50;42.00;;;;;-5.55;46.99;101755.50;6134981;23;8899;-72
2021/01/19 11:51:55;;;;;;;;;57.25;48.75;;;;;-5.37;48.04;101747.72;6135166;23;8857;-72
2021/01/19 11:54:52;;;;;;;;;53.00;48.50;;;;;-5.22;47.92;101752.13;6134846;23;8810;-72
2021/01/19 11:57:48;;;;;;;;;43.50;38.75;;;;;-5.69;47.80;101742.94;6154448;23;8833;-72
2021/01/19 12:00:43;;;;;;;;;43.50;39.50;;;;;-5.48;48.30;101745.56;6154629;23;8806;-71
2021/01/19 12:03:39;;;;;;;;;53.25;49.00;;;;;-5.36;45.62;101754.78;6154198;23;8809;-70
2021/01/19 12:06:20;;;;;;;;;50.00;45.75;;;;;-5.55;47.20;101747.41;6155663;23;8885;-72
2021/01/19 12:08:49;;;;;;;;;56.00;48.75;;;;;-5.87;47.52;101754.25;6164727;23;8789;-71
2021/01/19 12:11:54;;;;;;;;;35.75;28.25;;;;;-6.13;47.70;101752.22;6134282;23;8905;-72
2021/01/19 12:14:30;;;;;;;;;52.00;47.50;;;;;-5.87;46.01;101752.38;6163984;23;8816;-71
2021/01/19 12:17:06;;;;;;;;;57.50;51.00;;;;;-5.89;46.38;101751.75;6139985;23;8825;-71
2021/01/19 12:19:57;;;;;;;;;41.25;37.75;;;;;-6.05;47.37;101753.94;6129667;23;8872;-71
2021/01/19 12:22:52;;;;;;;;;73.75;57.75;;;;;-5.98;48.36;101752.97;6133282;23;9540;-70
2021/01/19 12:25:48;;;;;;;;;76.75;59.50;;;;;-5.83;46.59;101760.06;6134061;23;8875;-73
2021/01/19 12:28:44;;;;;;;;;48.50;46.25;;;;;-6.04;47.91;101761.00;6153517;23;8895;-72
2021/01/19 12:31:12;;;;;;;;;57.00;49.75;;;;;-6.18;48.02;101757.34;6163099;23;8805;-72
2021/01/19 12:33:55;;;;;;;;;33.25;31.75;;;;;-6.40;47.67;101756.53;6141065;23;8860;-72
2021/01/19 12:36:51;;;;;;;;;49.25;43.00;;;;;-6.39;48.69;101760.88;6153127;23;8832;-71
2021/01/19 12:39:18;;;;;;;;;51.75;44.00;;;;;-6.76;48.56;101770.88;6162930;23;8790;-72
2021/01/19 12:42:10;;;;;;;;;41.75;41.75;;;;;-6.77;50.06;101771.88;6154568;23;8809;-72
2021/01/19 12:44:37;;;;;;;;;57.50;51.00;;;;;-6.60;48.98;101775.16;6154393;23;8817;-73
2021/01/19 12:47:33;;;;;;;;;47.75;44.50;;;;;-6.78;49.49;101780.16;6153270;23;9555;-73
2021/01/19 12:50:28;;;;;;;;;44.75;44.00;;;;;-6.54;48.60;101774.41;6133653;23;8814;-73
2021/01/19 12:53:05;;;;;;;;;43.75;42.75;;;;;-6.72;49.48;101785.63;6139522;23;8805;-73
2021/01/19 12:55:34;;;;;;;;;44.50;39.75;;;;;-6.77;49.12;101779.97;6163137;23;9515;-73
2021/01/19 12:58:29;;;;;;;;;46.00;44.75;;;;;-7.02;49.42;101782.16;6132848;23;8844;-72
2021/01/19 13:00:58;;;;;;;;;52.50;46.00;;;;;-7.02;50.09;101790.22;6137832;23;8798;-73
2021/01/19 13:03:27;;;;;;;;;50.25;41.75;;;;;-7.00;50.26;101785.50;6162683;23;8817;-72
2021/01/19 13:06:09;;;;;;;;;73.00;51.25;;;;;-7.10;51.25;101782.28;6154173;23;8860;-73
2021/01/19 13:08:38;;;;;;;;;61.00;53.00;;;;;-7.17;50.89;101793.97;6154418;23;8833;-72
2021/01/19 13:11:06;;;;;;;;;48.75;46.25;;;;;-7.07;50.22;101789.94;6162221;23;8813;-72
2021/01/19 13:14:01;;;;;;;;;52.50;49.25;;;;;-7.06;49.73;101788.94;6133036;23;8895;-72
2021/01/19 13:16:28;;;;;;;;;70.75;56.50;;;;;-7.13;50.30;101801.47;6154290;23;8844;-72
2021/01/19 13:19:24;;;;;;;;;63.75;51.50;;;;;-7.37;50.18;101799.91;6132873;23;8801;-72
2021/01/19 13:22:19;;;;;;;;;55.00;47.50;;;;;-7.07;50.42;101803.41;6133462;23;8782;-72
2021/01/19 13:25:15;;;;;;;;;47.25;44.25;;;;;-7.16;50.18;101806.38;6152764;23;8923;-72
2021/01/19 13:27:42;;;;;;;;;48.25;46.00;;;;;-6.97;51.01;101804.97;6154088;23;8897;-73
2021/01/19 13:30:39;;;;;;;;;52.50;46.00;;;;;-7.16;50.30;101809.06;6152780;23;8872;-73
2021/01/19 13:33:34;;;;;;;;;47.75;44.25;;;;;-7.20;50.29;101807.78;6152332;23;8813;-72
2021/01/19 13:36:10;;;;;;;;;47.50;43.50;;;;;-7.34;50.38;101804.91;6107009;23;9594;-72
2021/01/19 13:39:06;;;;;;;;;60.25;48.00;;;;;-7.25;51.37;101804.81;6151651;23;8856;-72
2021/01/19 13:41:33;;;;;;;;;72.00;55.00;;;;;-7.33;50.12;101805.75;6160753;23;8806;-72
2021/01/19 13:44:28;;;;;;;;;38.25;32.00;;;;;-7.29;50.66;101807.84;6153588;23;8808;-72
2021/01/19 13:46:56;;;;;;;;;46.50;45.00;;;;;-7.51;51.13;101808.81;6163354;23;8888;-73
2021/01/19 13:49:24;;;;;;;;;46.25;44.25;;;;;-7.63;50.96;101813.78;6163598;23;8884;-72
2021/01/19 13:52:20;;;;;;;;;45.00;43.00;;;;;-7.65;50.97;101809.63;6153332;23;8817;-71
2021/01/19 13:55:16;;;;;;;;;45.25;40.50;;;;;-7.78;52.08;101815.63;6154819;23;8945;-72
2021/01/19 13:57:43;;;;;;;;;61.25;49.00;;;;;-7.87;51.91;101817.56;6163908;23;8798;-72
2021/01/19 14:00:38;;;;;;;;;43.25;42.25;;;;;-8.06;51.92;101817.22;6153527;23;8908;-73
2021/01/19 14:03:34;;;;;;;;;41.75;41.75;;;;;-8.08;51.96;101809.34;6153695;23;8786;-73
2021/01/19 14:06:15;;;;;;;;;48.50;45.50;;;;;-8.01;52.06;101820.19;6154501;23;8836;-72